createdAt,value
2018-09-18T00:04:00.000Z,19.1
2018-09-18T00:09:00.000Z,19.0
2018-09-18T00:14:00.000Z,19.0
2018-09-18T00:19:00.000Z,18.9
2018-09-18T00:24:00.000Z,18.9
2018-09-18T00:29:00.000Z,18.9
2018-09-18T00:34:00.000Z,18.8
2018-09-18T00:39:00.000Z,18.8
2018-09-18T00:44:00.000Z,18.7
2018-09-18T00:49:00.000Z,18.7
2018-09-18T00:54:00.000Z,18.7
2018-09-18T00:59:00.000Z,18.7
2018-09-18T01:04:00.000Z,18.7
2018-09-18T01:09:00.000Z,18.6
2018-09-18T01:14:00.000Z,18.6
2018-09-18T01:19:00.000Z,18.6
2018-09-18T01:24:00.000Z,18.5
2018-09-18T01:29:00.000Z,18.5
2018-09-18T01:34:00.000Z,18.5
2018-09-18T01:39:00.000Z,18.4
2018-09-18T01:44:00.000Z,18.4
2018-09-18T01:49:00.000Z,18.4
2018-09-18T01:54:00.000Z,18.4
2018-09-18T01:59:00.000Z,18.3
2018-09-18T02:04:00.000Z,18.4
2018-09-18T02:09:00.000Z,18.4
2018-09-18T02:14:00.000Z,18.4
2018-09-18T02:19:00.000Z,18.4
2018-09-18T02:24:00.000Z,18.3
2018-09-18T02:29:00.000Z,18.3
2018-09-18T02:34:00.000Z,18.3
2018-09-18T02:39:00.000Z,18.3
2018-09-18T02:44:00.000Z,18.3
2018-09-18T02:49:00.000Z,18.3
2018-09-18T02:54:00.000Z,18.3
2018-09-18T02:59:00.000Z,18.2
2018-09-18T03:04:00.000Z,18.2
2018-09-18T03:09:00.000Z,18.1
2018-09-18T03:14:00.000Z,18.1
2018-09-18T03:19:00.000Z,18.0
2018-09-18T03:24:00.000Z,18.0
2018-09-18T03:29:00.000Z,18.0
2018-09-18T03:34:00.000Z,17.9
2018-09-18T03:39:00.000Z,17.9
2018-09-18T03:44:00.000Z,17.8
2018-09-18T03:49:00.000Z,17.7
2018-09-18T03:54:00.000Z,17.6
2018-09-18T03:59:00.000Z,17.5
2018-09-18T04:04:00.000Z,17.4
2018-09-18T04:09:00.000Z,17.4
2018-09-18T04:14:00.000Z,17.4
2018-09-18T04:19:00.000Z,17.4
2018-09-18T04:24:00.000Z,17.4
2018-09-18T04:29:00.000Z,17.4
2018-09-18T04:34:00.000Z,17.4
2018-09-18T04:39:00.000Z,17.3
2018-09-18T04:44:00.000Z,17.3
2018-09-18T04:49:00.000Z,17.2
2018-09-18T04:54:00.000Z,17.1
2018-09-18T04:59:00.000Z,17.1
2018-09-18T05:04:00.000Z,17.1
2018-09-18T05:09:00.000Z,17.0
2018-09-18T05:14:00.000Z,17.0
2018-09-18T05:19:00.000Z,17.0
2018-09-18T05:24:00.000Z,17.0
2018-09-18T05:29:00.000Z,17.0
2018-09-18T05:34:00.000Z,17.0
2018-09-18T05:39:00.000Z,17.1
2018-09-18T05:44:00.000Z,17.1
2018-09-18T05:49:00.000Z,17.1
2018-09-18T05:54:00.000Z,17.2
2018-09-18T05:59:00.000Z,17.2
2018-09-18T06:04:00.000Z,17.3
2018-09-18T06:10:00.000Z,17.4
2018-09-18T06:15:00.000Z,17.5
2018-09-18T06:20:00.000Z,17.6
2018-09-18T06:25:00.000Z,17.7
2018-09-18T06:30:00.000Z,17.8
2018-09-18T06:35:00.000Z,17.9
2018-09-18T06:40:00.000Z,18.0
2018-09-18T06:45:00.000Z,18.1
2018-09-18T06:50:00.000Z,18.3
2018-09-18T06:55:00.000Z,18.4
2018-09-18T07:00:00.000Z,18.5
2018-09-18T07:05:00.000Z,18.7
2018-09-18T07:10:00.000Z,18.9
2018-09-18T07:15:00.000Z,19.0
2018-09-18T07:20:00.000Z,19.2
2018-09-18T07:25:00.000Z,19.4
2018-09-18T07:30:00.000Z,19.7
2018-09-18T07:35:00.000Z,20.0
2018-09-18T07:40:00.000Z,20.3
2018-09-18T07:45:00.000Z,20.5
2018-09-18T07:50:00.000Z,20.8
2018-09-18T07:55:00.000Z,21.0
2018-09-18T08:00:00.000Z,21.3
2018-09-18T08:05:00.000Z,21.5
2018-09-18T08:10:00.000Z,21.8
2018-09-18T08:15:00.000Z,22.1
2018-09-18T08:20:00.000Z,23.2
2018-09-18T08:25:00.000Z,24.4
2018-09-18T08:30:00.000Z,25.5
2018-09-18T08:35:00.000Z,26.4
2018-09-18T08:40:00.000Z,27.3
2018-09-18T08:45:00.000Z,28.0
2018-09-18T08:50:00.000Z,28.5
2018-09-18T08:55:00.000Z,29.0
2018-09-18T09:00:00.000Z,29.3
2018-09-18T09:05:00.000Z,29.6
2018-09-18T09:10:00.000Z,29.7
2018-09-18T09:15:00.000Z,29.8
2018-09-18T09:20:00.000Z,29.9
2018-09-18T09:25:00.000Z,30.2
2018-09-18T09:30:00.000Z,30.3
2018-09-18T09:35:00.000Z,30.3
2018-09-18T09:40:00.000Z,30.3
2018-09-18T09:45:00.000Z,30.4
2018-09-18T09:50:00.000Z,30.5
2018-09-18T09:55:00.000Z,30.5
2018-09-18T10:00:00.000Z,30.5
2018-09-18T10:05:00.000Z,30.4
2018-09-18T10:10:00.000Z,30.4
2018-09-18T10:15:00.000Z,30.4
2018-09-18T10:20:00.000Z,30.3
2018-09-18T10:25:00.000Z,30.2
2018-09-18T10:30:00.000Z,30.1
2018-09-18T10:35:00.000Z,30.0
2018-09-18T10:40:00.000Z,29.9
2018-09-18T10:45:00.000Z,29.9
2018-09-18T10:50:00.000Z,29.9
2018-09-18T10:55:00.000Z,29.8
2018-09-18T11:00:00.000Z,29.7
2018-09-18T11:05:00.000Z,29.6
2018-09-18T11:10:00.000Z,29.6
2018-09-18T11:15:00.000Z,29.5
2018-09-18T11:20:00.000Z,29.2
2018-09-18T11:25:00.000Z,29.0
2018-09-18T11:30:00.000Z,28.8
2018-09-18T11:35:00.000Z,28.5
2018-09-18T11:40:00.000Z,28.2
2018-09-18T11:46:00.000Z,28.0
2018-09-18T11:51:00.000Z,27.9
2018-09-18T11:56:00.000Z,27.8
2018-09-18T12:01:00.000Z,27.8
2018-09-18T12:06:00.000Z,27.8
2018-09-18T12:11:00.000Z,27.8
2018-09-18T12:16:00.000Z,27.9
2018-09-18T12:21:00.000Z,27.9
2018-09-18T12:26:00.000Z,28.1
2018-09-18T12:31:00.000Z,28.2
2018-09-18T12:36:00.000Z,28.3
2018-09-18T12:41:00.000Z,28.4
2018-09-18T12:46:00.000Z,28.4
2018-09-18T12:51:00.000Z,28.5
2018-09-18T12:56:00.000Z,28.5
2018-09-18T13:01:00.000Z,28.5
2018-09-18T13:06:00.000Z,28.5
2018-09-18T13:11:00.000Z,28.5
2018-09-18T13:16:00.000Z,28.6
2018-09-18T13:21:00.000Z,28.7
2018-09-18T13:26:00.000Z,28.7
2018-09-18T13:31:00.000Z,28.8
2018-09-18T13:36:00.000Z,28.7
2018-09-18T13:41:00.000Z,28.7
2018-09-18T13:46:00.000Z,28.6
2018-09-18T13:51:00.000Z,28.6
2018-09-18T13:56:00.000Z,28.5
2018-09-18T14:01:00.000Z,28.5
2018-09-18T14:06:00.000Z,28.5
2018-09-18T14:11:00.000Z,28.5
2018-09-18T14:16:00.000Z,28.3
2018-09-18T14:21:00.000Z,28.2
2018-09-18T14:26:00.000Z,28.1
2018-09-18T14:31:00.000Z,27.9
2018-09-18T14:36:00.000Z,27.7
2018-09-18T14:41:00.000Z,27.6
2018-09-18T14:46:00.000Z,27.5
2018-09-18T14:51:00.000Z,27.4
2018-09-18T14:56:00.000Z,27.2
2018-09-18T15:01:00.000Z,27.1
2018-09-18T15:06:00.000Z,27.0
2018-09-18T15:11:00.000Z,26.9
2018-09-18T15:16:00.000Z,26.7
2018-09-18T15:21:00.000Z,26.6
2018-09-18T15:26:00.000Z,26.4
2018-09-18T15:31:00.000Z,26.3
2018-09-18T15:36:00.000Z,26.1
2018-09-18T15:41:00.000Z,26.0
2018-09-18T15:46:00.000Z,25.8
2018-09-18T15:51:00.000Z,25.7
2018-09-18T15:56:00.000Z,25.5
2018-09-18T16:01:00.000Z,25.4
2018-09-18T16:06:00.000Z,25.3
2018-09-18T16:11:00.000Z,25.1
2018-09-18T16:16:00.000Z,25.0
2018-09-18T16:21:00.000Z,24.8
2018-09-18T16:26:00.000Z,24.7
2018-09-18T16:31:00.000Z,24.5
2018-09-18T16:36:00.000Z,24.4
2018-09-18T16:41:00.000Z,24.2
2018-09-18T16:46:00.000Z,24.1
2018-09-18T16:51:00.000Z,24.0
2018-09-18T16:56:00.000Z,23.8
2018-09-18T17:01:00.000Z,23.7
2018-09-18T17:06:00.000Z,23.6
2018-09-18T17:11:00.000Z,23.5
2018-09-18T17:16:00.000Z,23.4
2018-09-18T17:22:00.000Z,23.2
2018-09-18T17:27:00.000Z,23.1
2018-09-18T17:32:00.000Z,23.0
2018-09-18T17:37:00.000Z,22.9
2018-09-18T17:42:00.000Z,22.8
2018-09-18T17:47:00.000Z,22.7
2018-09-18T17:52:00.000Z,22.6
2018-09-18T17:57:00.000Z,22.5
2018-09-18T18:02:00.000Z,22.4
2018-09-18T18:07:00.000Z,22.3
2018-09-18T18:12:00.000Z,22.2
2018-09-18T18:17:00.000Z,22.1
2018-09-18T18:22:00.000Z,22.1
2018-09-18T18:27:00.000Z,22.0
2018-09-18T18:32:00.000Z,21.9
2018-09-18T18:37:00.000Z,21.9
2018-09-18T18:42:00.000Z,21.8
2018-09-18T18:47:00.000Z,21.7
2018-09-18T18:52:00.000Z,21.7
2018-09-18T18:57:00.000Z,21.6
2018-09-18T19:02:00.000Z,21.6
2018-09-18T19:07:00.000Z,21.5
2018-09-18T19:12:00.000Z,21.5
2018-09-18T19:17:00.000Z,21.5
2018-09-18T19:22:00.000Z,21.4
2018-09-18T19:27:00.000Z,21.3
2018-09-18T19:32:00.000Z,21.3
2018-09-18T19:37:00.000Z,21.2
2018-09-18T19:42:00.000Z,21.2
2018-09-18T19:47:00.000Z,21.1
2018-09-18T19:52:00.000Z,21.1
2018-09-18T19:57:00.000Z,21.0
2018-09-18T20:02:00.000Z,21.0
2018-09-18T20:07:00.000Z,20.9
2018-09-18T20:12:00.000Z,20.8
2018-09-18T20:17:00.000Z,20.7
2018-09-18T20:22:00.000Z,20.7
2018-09-18T20:27:00.000Z,20.6
2018-09-18T20:32:00.000Z,20.6
2018-09-18T20:37:00.000Z,20.5
2018-09-18T20:42:00.000Z,20.4
2018-09-18T20:47:00.000Z,20.4
2018-09-18T20:52:00.000Z,20.3
2018-09-18T20:57:00.000Z,20.3
2018-09-18T21:02:00.000Z,20.2
2018-09-18T21:07:00.000Z,20.2
2018-09-18T21:12:00.000Z,20.1
2018-09-18T21:17:00.000Z,20.0
2018-09-18T21:22:00.000Z,20.0
2018-09-18T21:27:00.000Z,19.9
2018-09-18T21:32:00.000Z,19.8
2018-09-18T21:37:00.000Z,19.8
2018-09-18T21:42:00.000Z,19.8
2018-09-18T21:47:00.000Z,19.7
2018-09-18T21:52:00.000Z,19.7
2018-09-18T21:57:00.000Z,19.6
2018-09-18T22:02:00.000Z,19.6
2018-09-18T22:07:00.000Z,19.5
2018-09-18T22:12:00.000Z,19.5
2018-09-18T22:17:00.000Z,19.4
2018-09-18T22:22:00.000Z,19.4
2018-09-18T22:27:00.000Z,19.4
2018-09-18T22:32:00.000Z,19.3
2018-09-18T22:37:00.000Z,19.3
2018-09-18T22:42:00.000Z,19.2
2018-09-18T22:47:00.000Z,19.2
2018-09-18T22:52:00.000Z,19.2
2018-09-18T22:57:00.000Z,19.1
2018-09-18T23:02:00.000Z,19.1
2018-09-18T23:07:00.000Z,19.1
2018-09-18T23:13:00.000Z,19.1
2018-09-18T23:18:00.000Z,19.1
2018-09-18T23:23:00.000Z,19.0
2018-09-18T23:28:00.000Z,19.0
2018-09-18T23:33:00.000Z,19.0
2018-09-18T23:38:00.000Z,18.9
2018-09-18T23:43:00.000Z,18.9
2018-09-18T23:48:00.000Z,18.8
2018-09-18T23:53:00.000Z,18.8
2018-09-18T23:58:00.000Z,18.8
